createdAt,value
2018-04-19T00:00:53.320Z,13.53
2018-04-19T00:03:21.754Z,14.97
2018-04-19T00:05:50.827Z,15.07
2018-04-19T00:08:19.257Z,13.83
2018-04-19T00:10:47.650Z,15.13
2018-04-19T00:13:16.039Z,15.73
2018-04-19T00:15:44.436Z,15.10
2018-04-19T00:18:12.792Z,13.70
2018-04-19T00:20:41.140Z,13.77
2018-04-19T00:23:09.686Z,13.80
2018-04-19T00:25:38.049Z,12.73
2018-04-19T00:28:06.501Z,15.47
2018-04-19T00:30:35.045Z,13.55
2018-04-19T00:33:04.142Z,14.33
2018-04-19T00:35:33.355Z,14.00
2018-04-19T00:38:01.691Z,14.10
2018-04-19T00:40:30.007Z,13.10
2018-04-19T00:42:58.337Z,12.60
2018-04-19T00:45:26.895Z,13.43
2018-04-19T00:47:55.374Z,14.52
2018-04-19T00:50:23.764Z,14.70
2018-04-19T00:53:09.872Z,14.20
2018-04-19T00:55:38.392Z,15.23
2018-04-19T00:58:07.998Z,15.32
2018-04-19T01:00:37.341Z,13.97
2018-04-19T01:03:05.637Z,14.00
2018-04-19T01:05:33.927Z,13.77
2018-04-19T01:08:02.550Z,13.67
2018-04-19T01:10:30.882Z,13.03
2018-04-19T01:13:00.571Z,15.23
2018-04-19T01:15:29.176Z,14.03
2018-04-19T01:17:57.916Z,13.60
2018-04-19T01:20:26.202Z,12.17
2018-04-19T01:22:54.482Z,11.60
2018-04-19T01:25:22.805Z,11.55
2018-04-19T01:27:51.131Z,12.97
2018-04-19T01:30:19.447Z,12.57
2018-04-19T01:32:47.792Z,13.20
2018-04-19T01:35:16.158Z,14.93
2018-04-19T01:37:44.632Z,14.33
2018-04-19T01:40:12.982Z,12.37
2018-04-19T01:42:42.332Z,12.27
2018-04-19T01:45:10.617Z,12.37
2018-04-19T01:47:38.952Z,12.57
2018-04-19T01:50:08.142Z,13.37
2018-04-19T01:52:37.207Z,12.47
2018-04-19T01:55:05.601Z,10.63
2018-04-19T01:57:33.913Z,12.17
2018-04-19T02:00:02.252Z,11.93
2018-04-19T02:02:31.335Z,12.50
2018-04-19T02:04:59.681Z,13.03
2018-04-19T02:07:28.032Z,12.70
2018-04-19T02:09:56.481Z,13.07
2018-04-19T02:12:25.044Z,11.30
2018-04-19T02:14:54.652Z,11.00
2018-04-19T02:17:23.156Z,11.47
2018-04-19T02:19:51.497Z,27.33
2018-04-19T02:22:19.818Z,35.57
2018-04-19T02:24:48.327Z,21.27
2018-04-19T02:27:16.612Z,12.37
2018-04-19T02:29:44.936Z,12.70
2018-04-19T02:32:13.223Z,11.93
2018-04-19T02:34:41.546Z,12.87
2018-04-19T02:37:09.867Z,10.70
2018-04-19T02:39:39.714Z,10.37
2018-04-19T02:42:08.046Z,10.75
2018-04-19T02:44:36.356Z,11.67
2018-04-19T02:47:05.509Z,13.40
2018-04-19T02:49:33.800Z,10.77
2018-04-19T02:52:03.646Z,10.83
2018-04-19T02:54:32.136Z,9.47
2018-04-19T02:57:00.522Z,13.07
2018-04-19T02:59:28.886Z,12.23
2018-04-19T03:01:57.365Z,10.18
2018-04-19T03:04:26.447Z,29.03
2018-04-19T03:06:54.850Z,38.43
2018-04-19T03:09:23.416Z,16.43
2018-04-19T03:11:52.500Z,11.90
2018-04-19T03:14:20.923Z,12.47
2018-04-19T03:16:49.267Z,10.67
2018-04-19T03:19:19.447Z,10.83
2018-04-19T03:21:47.792Z,11.40
2018-04-19T03:24:16.115Z,9.97
2018-04-19T03:26:44.507Z,9.03
2018-04-19T03:29:12.816Z,9.90
2018-04-19T03:31:41.170Z,10.90
2018-04-19T03:34:09.513Z,10.27
2018-04-19T03:36:38.002Z,10.97
2018-04-19T03:39:06.290Z,10.53
2018-04-19T03:41:34.705Z,11.67
2018-04-19T03:44:03.793Z,9.87
2018-04-19T03:46:32.936Z,8.30
2018-04-19T03:49:02.797Z,9.05
2018-04-19T03:51:32.994Z,9.63
2018-04-19T03:54:01.307Z,9.57
2018-04-19T03:56:29.760Z,9.80
2018-04-19T03:58:58.298Z,9.63
2018-04-19T04:01:26.608Z,10.27
2018-04-19T04:03:54.893Z,10.30
2018-04-19T04:06:23.208Z,10.47
2018-04-19T04:08:51.582Z,9.93
2018-04-19T04:11:19.947Z,10.32
2018-04-19T04:13:48.998Z,11.53
2018-04-19T04:19:45.599Z,9.00
2018-04-19T04:22:32.944Z,11.47
2018-04-19T04:25:01.392Z,9.93
2018-04-19T04:27:29.678Z,8.70
2018-04-19T04:29:58.925Z,10.45
2018-04-19T04:32:27.425Z,10.20
2018-04-19T04:34:55.699Z,8.90
2018-04-19T04:37:24.058Z,9.40
2018-04-19T04:39:52.518Z,8.57
2018-04-19T04:42:22.774Z,9.23
2018-04-19T04:44:51.303Z,10.47
2018-04-19T04:47:20.576Z,10.23
2018-04-19T04:49:49.701Z,8.93
2018-04-19T04:52:18.317Z,8.85
2018-04-19T04:54:46.646Z,8.60
2018-04-19T04:57:15.757Z,9.83
2018-04-19T04:59:45.004Z,10.73
2018-04-19T05:02:13.300Z,9.73
2018-04-19T05:04:41.822Z,8.18
2018-04-19T05:07:11.023Z,7.47
2018-04-19T05:09:39.409Z,8.87
2018-04-19T05:12:07.731Z,8.70
2018-04-19T05:14:36.202Z,8.03
2018-04-19T05:17:05.335Z,9.75
2018-04-19T05:19:34.618Z,8.77
2018-04-19T05:22:03.414Z,9.10
2018-04-19T05:24:32.507Z,9.03
2018-04-19T05:27:01.609Z,8.70
2018-04-19T05:29:30.698Z,10.90
2018-04-19T05:31:59.927Z,10.90
2018-04-19T05:34:28.397Z,11.63
2018-04-19T05:36:56.768Z,10.33
2018-04-19T05:39:25.857Z,11.80
2018-04-19T05:41:54.959Z,10.77
2018-04-19T05:44:24.832Z,9.57
2018-04-19T05:46:53.224Z,10.35
2018-04-19T05:49:21.491Z,9.60
2018-04-19T05:51:50.089Z,9.73
2018-04-19T05:54:18.418Z,8.83
2018-04-19T05:56:46.752Z,19.40
2018-04-19T05:59:15.299Z,11.43
2018-04-19T06:01:43.679Z,11.57
2018-04-19T06:04:12.139Z,11.00
2018-04-19T06:06:40.433Z,9.70
2018-04-19T06:09:08.972Z,10.10
2018-04-19T06:11:38.169Z,8.83
2018-04-19T06:14:07.292Z,10.93
2018-04-19T06:16:35.613Z,9.65
2018-04-19T06:19:04.141Z,12.73
2018-04-19T06:21:33.866Z,11.85
2018-04-19T06:24:02.603Z,9.20
2018-04-19T06:26:31.951Z,8.93
2018-04-19T06:29:00.247Z,8.70
2018-04-19T06:31:28.582Z,10.47
2018-04-19T06:33:57.862Z,9.87
2018-04-19T06:36:27.033Z,9.17
2018-04-19T06:38:55.579Z,8.90
2018-04-19T06:41:24.193Z,8.90
2018-04-19T06:43:52.550Z,8.68
2018-04-19T06:46:20.962Z,9.02
2018-04-19T06:48:49.337Z,7.40
2018-04-19T06:51:17.797Z,8.50
2018-04-19T06:53:46.847Z,9.73
2018-04-19T06:56:15.926Z,10.07
2018-04-19T06:58:45.506Z,8.00
2018-04-19T07:01:13.793Z,6.23
2018-04-19T07:03:42.307Z,7.50
2018-04-19T07:06:11.534Z,6.10
2018-04-19T07:08:39.842Z,7.87
2018-04-19T07:11:08.253Z,6.55
2018-04-19T07:13:37.324Z,7.03
2018-04-19T07:16:05.647Z,6.73
2018-04-19T07:18:34.048Z,6.93
2018-04-19T07:21:02.453Z,7.12
2018-04-19T07:23:30.833Z,6.80
2018-04-19T07:25:59.306Z,7.03
2018-04-19T07:28:27.628Z,6.10
2018-04-19T07:30:56.744Z,6.50
2018-04-19T07:33:25.146Z,6.80
2018-04-19T07:35:53.498Z,5.90
2018-04-19T07:38:21.817Z,6.03
2018-04-19T07:40:50.142Z,5.20
2018-04-19T07:43:18.463Z,5.27
2018-04-19T07:45:46.771Z,4.87
2018-04-19T07:48:15.147Z,4.87
2018-04-19T07:50:43.498Z,5.17
2018-04-19T07:53:11.807Z,4.87
2018-04-19T07:55:40.927Z,4.53
2018-04-19T07:58:10.469Z,4.40
2018-04-19T08:00:38.893Z,4.97
2018-04-19T08:03:07.275Z,4.50
2018-04-19T08:05:36.377Z,4.00
2018-04-19T08:08:05.523Z,5.23
2018-04-19T08:10:33.915Z,4.90
2018-04-19T08:13:02.241Z,5.57
2018-04-19T08:15:30.607Z,4.43
2018-04-19T08:17:59.002Z,4.07
2018-04-19T08:20:27.333Z,4.50
2018-04-19T08:22:55.639Z,4.97
2018-04-19T08:25:24.793Z,5.20
2018-04-19T08:27:53.199Z,4.77
2018-04-19T08:30:21.607Z,3.72
2018-04-19T08:32:49.949Z,3.40
2018-04-19T08:35:19.098Z,3.60
2018-04-19T08:37:47.498Z,3.70
2018-04-19T08:40:15.783Z,4.00
2018-04-19T08:42:44.150Z,3.90
2018-04-19T08:45:12.612Z,3.83
2018-04-19T08:47:41.059Z,4.03
2018-04-19T08:50:10.291Z,4.17
2018-04-19T08:52:38.704Z,4.17
2018-04-19T08:55:07.013Z,4.33
2018-04-19T08:57:37.253Z,3.70
2018-04-19T09:00:05.733Z,3.83
2018-04-19T09:02:34.099Z,4.20
2018-04-19T09:05:02.458Z,3.53
2018-04-19T09:07:31.534Z,3.80
2018-04-19T09:09:59.824Z,4.10
2018-04-19T09:12:28.164Z,4.27
2018-04-19T09:14:56.578Z,3.90
2018-04-19T09:17:25.269Z,4.30
2018-04-19T09:19:53.645Z,4.07
2018-04-19T09:22:22.338Z,4.53
2018-04-19T09:24:50.798Z,3.77
2018-04-19T09:27:19.240Z,4.90
2018-04-19T09:29:47.523Z,3.90
2018-04-19T09:32:15.830Z,3.47
2018-04-19T09:34:44.217Z,4.53
2018-04-19T09:37:12.659Z,3.60
2018-04-19T09:39:41.135Z,3.80
2018-04-19T09:42:09.700Z,3.80
2018-04-19T09:44:38.929Z,4.00
2018-04-19T09:47:07.231Z,3.40
2018-04-19T09:49:35.554Z,3.07
2018-04-19T09:52:04.158Z,2.67
2018-04-19T09:54:32.712Z,2.93
2018-04-19T09:57:01.907Z,2.93
2018-04-19T09:59:32.138Z,2.70
2018-04-19T10:02:04.498Z,2.77
2018-04-19T10:04:34.746Z,3.42
2018-04-19T10:07:03.056Z,3.10
2018-04-19T10:09:31.562Z,3.13
2018-04-19T10:12:00.092Z,2.97
2018-04-19T10:14:28.567Z,2.60
2018-04-19T10:16:56.929Z,2.60
2018-04-19T10:19:26.090Z,2.30
2018-04-19T10:21:54.400Z,2.50
2018-04-19T10:24:23.518Z,2.70
2018-04-19T10:26:51.790Z,2.77
2018-04-19T10:29:20.103Z,2.83
2018-04-19T10:31:48.423Z,2.47
2018-04-19T10:34:17.664Z,2.50
2018-04-19T10:36:47.197Z,1.92
2018-04-19T10:39:15.764Z,2.10
2018-04-19T10:41:44.093Z,2.80
2018-04-19T10:44:13.293Z,2.60
2018-04-19T10:46:41.607Z,2.20
2018-04-19T10:49:10.053Z,2.17
2018-04-19T10:51:39.125Z,2.50
2018-04-19T10:54:07.531Z,2.53
2018-04-19T10:56:36.654Z,2.53
2018-04-19T10:59:05.000Z,2.13
2018-04-19T11:01:33.385Z,2.35
2018-04-19T11:04:01.716Z,2.10
2018-04-19T11:06:30.004Z,2.23
2018-04-19T11:08:59.787Z,2.30
2018-04-19T11:11:28.149Z,2.00
2018-04-19T11:13:56.593Z,2.10
2018-04-19T11:16:24.918Z,2.30
2018-04-19T11:18:53.514Z,2.23
2018-04-19T11:21:21.815Z,2.00
2018-04-19T11:23:51.014Z,1.87
2018-04-19T11:26:20.114Z,2.15
2018-04-19T11:28:48.499Z,1.90
2018-04-19T11:31:17.603Z,2.00
2018-04-19T11:33:45.938Z,1.90
2018-04-19T11:36:14.277Z,1.90
2018-04-19T11:38:42.648Z,1.87
2018-04-19T11:41:12.687Z,2.00
2018-04-19T11:43:41.011Z,1.93
2018-04-19T11:46:10.167Z,2.03
2018-04-19T11:48:38.623Z,2.40
2018-04-19T11:51:06.992Z,2.10
2018-04-19T11:53:35.442Z,2.03
2018-04-19T11:56:04.547Z,2.10
2018-04-19T11:58:33.879Z,2.30
2018-04-19T12:01:02.313Z,1.95
2018-04-19T12:03:32.125Z,2.20
2018-04-19T12:06:01.286Z,1.93
2018-04-19T12:08:29.568Z,2.10
2018-04-19T12:10:57.930Z,2.03
2018-04-19T12:13:26.592Z,1.80
2018-04-19T12:15:56.254Z,1.92
2018-04-19T12:18:24.716Z,1.67
2018-04-19T12:20:53.534Z,1.90
2018-04-19T12:23:22.670Z,1.80
2018-04-19T12:25:50.995Z,1.90
2018-04-19T12:28:19.325Z,2.40
2018-04-19T12:30:47.698Z,1.80
2018-04-19T12:33:16.072Z,1.80
2018-04-19T12:35:44.766Z,1.70
2018-04-19T12:38:13.107Z,1.83
2018-04-19T12:40:41.444Z,1.80
2018-04-19T12:43:09.780Z,1.70
2018-04-19T12:45:38.911Z,1.60
2018-04-19T12:48:07.207Z,1.50
2018-04-19T12:50:35.555Z,1.73
2018-04-19T12:53:04.045Z,2.30
2018-04-19T12:55:32.419Z,1.80
2018-04-19T12:58:01.799Z,1.73
2018-04-19T13:00:31.046Z,1.90
2018-04-19T13:02:59.447Z,2.20
2018-04-19T13:05:27.821Z,1.80
2018-04-19T13:07:56.224Z,1.75
2018-04-19T13:10:25.415Z,2.20
2018-04-19T13:12:53.867Z,1.90
2018-04-19T13:15:22.589Z,1.90
2018-04-19T13:17:51.684Z,2.20
2018-04-19T13:20:21.878Z,2.20
2018-04-19T13:22:50.245Z,1.77
2018-04-19T13:25:18.571Z,2.17
2018-04-19T13:27:47.850Z,3.60
2018-04-19T13:30:16.249Z,2.00
2018-04-19T13:32:44.770Z,3.80
2018-04-19T13:35:13.375Z,2.20
2018-04-19T13:37:41.789Z,2.45
2018-04-19T13:40:11.123Z,1.90
2018-04-19T13:42:39.492Z,2.00
2018-04-19T13:45:07.931Z,2.00
2018-04-19T13:47:36.574Z,2.10
2018-04-19T13:50:04.922Z,1.70
2018-04-19T13:52:35.240Z,2.10
2018-04-19T13:55:04.656Z,1.70
2018-04-19T13:57:33.077Z,2.47
2018-04-19T14:00:01.603Z,2.20
2018-04-19T14:02:30.844Z,2.00
2018-04-19T14:04:59.473Z,2.33
2018-04-19T14:07:27.798Z,2.13
2018-04-19T14:09:56.246Z,3.87
2018-04-19T14:12:25.460Z,2.90
2018-04-19T14:14:53.990Z,2.00
2018-04-19T14:17:22.410Z,2.20
2018-04-19T14:19:50.890Z,2.17
2018-04-19T14:22:19.345Z,2.40
2018-04-19T14:24:47.754Z,2.20
2018-04-19T14:27:16.262Z,2.20
2018-04-19T14:29:44.840Z,1.90
2018-04-19T14:32:14.028Z,2.70
2018-04-19T14:34:42.423Z,2.07
2018-04-19T14:37:10.901Z,2.50
2018-04-19T14:39:39.307Z,2.87
2018-04-19T14:42:07.863Z,3.10
2018-04-19T14:44:36.191Z,3.30
2018-04-19T14:47:04.765Z,6.17
2018-04-19T14:49:33.075Z,3.67
2018-04-19T14:52:01.632Z,3.10
2018-04-19T14:54:30.040Z,3.00
2018-04-19T14:56:58.364Z,3.00
2018-04-19T14:59:26.736Z,3.27
2018-04-19T15:01:55.076Z,2.80
2018-04-19T15:04:23.736Z,2.57
2018-04-19T15:06:52.999Z,2.60
2018-04-19T15:09:21.391Z,2.85
2018-04-19T15:11:50.634Z,2.50
2018-04-19T15:14:19.003Z,2.30
2018-04-19T15:16:48.284Z,2.87
2018-04-19T15:19:16.697Z,2.70
2018-04-19T15:21:45.035Z,2.10
2018-04-19T15:24:13.457Z,2.20
2018-04-19T15:26:42.048Z,2.40
2018-04-19T15:29:10.345Z,3.80
2018-04-19T15:31:38.744Z,4.00
2018-04-19T15:34:07.177Z,2.37
2018-04-19T15:36:35.483Z,2.50
2018-04-19T15:39:04.167Z,2.92
2018-04-19T15:41:32.518Z,2.75
2018-04-19T15:44:00.881Z,3.13
2018-04-19T15:46:29.372Z,2.80
2018-04-19T15:48:57.813Z,2.73
2018-04-19T15:51:26.343Z,2.40
2018-04-19T15:53:54.934Z,2.20
2018-04-19T15:56:23.344Z,2.50
2018-04-19T15:58:51.804Z,2.23
2018-04-19T16:01:20.266Z,2.42
2018-04-19T16:03:48.632Z,2.60
2018-04-19T16:06:17.011Z,2.60
2018-04-19T16:08:45.355Z,2.33
2018-04-19T16:11:14.508Z,2.25
2018-04-19T16:13:42.947Z,2.40
2018-04-19T16:16:11.590Z,2.53
2018-04-19T16:18:40.973Z,2.30
2018-04-19T16:21:09.372Z,2.17
2018-04-19T16:23:37.759Z,2.60
2018-04-19T16:26:07.305Z,2.30
2018-04-19T16:28:35.800Z,2.10
2018-04-19T16:31:04.289Z,2.50
2018-04-19T16:33:32.629Z,2.20
2018-04-19T16:36:01.719Z,3.12
2018-04-19T16:38:30.064Z,2.17
2018-04-19T16:40:58.583Z,2.20
2018-04-19T16:43:26.966Z,9.52
2018-04-19T16:45:55.525Z,3.30
2018-04-19T16:48:23.939Z,3.00
2018-04-19T16:50:52.375Z,1.80
2018-04-19T16:53:20.908Z,4.36
2018-04-19T16:55:49.411Z,2.90
2018-04-19T16:58:19.238Z,2.20
2018-04-19T17:00:47.583Z,2.75
2018-04-19T17:03:16.080Z,2.17
2018-04-19T17:05:45.397Z,2.10
2018-04-19T17:08:14.659Z,2.30
2018-04-19T17:10:43.206Z,2.80
2018-04-19T17:13:11.703Z,2.53
2018-04-19T17:15:40.198Z,2.15
2018-04-19T17:18:08.612Z,2.28
2018-04-19T17:20:37.005Z,2.63
2018-04-19T17:23:06.102Z,2.80
2018-04-19T17:25:35.203Z,2.22
2018-04-19T17:28:03.709Z,2.30
2018-04-19T17:30:32.149Z,2.07
2018-04-19T17:33:01.314Z,2.37
2018-04-19T17:35:29.831Z,2.17
2018-04-19T17:37:59.443Z,2.27
2018-04-19T17:40:27.910Z,2.60
2018-04-19T17:42:56.292Z,2.20
2018-04-19T17:45:24.787Z,2.17
2018-04-19T17:47:53.283Z,2.37
2018-04-19T17:50:21.822Z,5.00
2018-04-19T17:52:50.926Z,3.10
2018-04-19T17:55:19.467Z,2.70
2018-04-19T17:57:48.039Z,3.00
2018-04-19T18:00:17.507Z,2.60
2018-04-19T18:02:46.324Z,2.60
2018-04-19T18:05:15.060Z,2.50
2018-04-19T18:07:44.508Z,2.73
2018-04-19T18:10:13.096Z,3.07
2018-04-19T18:12:41.965Z,3.13
2018-04-19T18:15:10.380Z,2.90
2018-04-19T18:17:39.009Z,2.90
2018-04-19T18:20:07.446Z,3.20
2018-04-19T18:22:36.785Z,2.70
2018-04-19T18:25:05.140Z,2.90
2018-04-19T18:27:34.332Z,4.05
2018-04-19T18:30:03.626Z,3.50
2018-04-19T18:32:32.740Z,3.20
2018-04-19T18:35:02.028Z,2.67
2018-04-19T18:37:32.553Z,3.73
2018-04-19T18:40:03.110Z,3.80
2018-04-19T18:42:31.468Z,8.40
2018-04-19T18:44:59.904Z,29.37
2018-04-19T18:47:28.461Z,11.93
2018-04-19T18:49:56.949Z,5.93
2018-04-19T18:52:25.575Z,4.70
2018-04-19T18:54:53.973Z,3.63
2018-04-19T18:57:22.587Z,3.40
2018-04-19T18:59:51.162Z,3.10
2018-04-19T19:02:19.533Z,5.10
2018-04-19T19:04:48.001Z,4.23
2018-04-19T19:07:16.408Z,4.03
2018-04-19T19:09:44.898Z,5.50
2018-04-19T19:12:13.338Z,5.10
2018-04-19T19:14:41.817Z,4.13
2018-04-19T19:17:27.815Z,3.83
2018-04-19T19:20:10.220Z,4.25
2018-04-19T19:22:38.565Z,4.20
2018-04-19T19:25:07.222Z,4.47
2018-04-19T19:27:35.869Z,4.20
2018-04-19T19:30:04.292Z,11.12
2018-04-19T19:32:32.828Z,10.07
2018-04-19T19:35:01.322Z,7.63
2018-04-19T19:37:30.663Z,5.43
2018-04-19T19:39:59.243Z,6.87
2018-04-19T19:42:27.690Z,4.97
2018-04-19T19:44:56.034Z,5.00
2018-04-19T19:47:25.200Z,6.03
2018-04-19T19:49:53.605Z,4.97
2018-04-19T19:52:22.065Z,4.22
2018-04-19T19:54:50.493Z,4.90
2018-04-19T19:57:19.048Z,4.50
2018-04-19T19:59:48.207Z,4.40
2018-04-19T20:02:16.736Z,4.43
2018-04-19T20:04:45.881Z,5.15
2018-04-19T20:07:14.551Z,4.50
2018-04-19T20:09:42.881Z,4.53
2018-04-19T20:12:11.319Z,4.20
2018-04-19T20:14:39.654Z,4.30
2018-04-19T20:17:08.799Z,3.80
2018-04-19T20:19:37.233Z,3.67
2018-04-19T20:22:06.351Z,4.57
2018-04-19T20:24:34.672Z,4.47
2018-04-19T20:27:02.997Z,3.83
2018-04-19T20:29:31.696Z,4.50
2018-04-19T20:32:00.451Z,4.47
2018-04-19T20:34:29.747Z,5.90
2018-04-19T20:36:58.947Z,5.70
2018-04-19T20:39:28.148Z,6.00
2018-04-19T20:41:57.292Z,5.57
2018-04-19T20:44:25.708Z,3.87
2018-04-19T20:46:55.227Z,4.60
2018-04-19T20:49:23.612Z,4.77
2018-04-19T20:51:51.981Z,4.63
2018-04-19T20:54:20.311Z,4.13
2018-04-19T20:56:48.710Z,4.68
2018-04-19T20:59:17.073Z,5.60
2018-04-19T21:01:45.407Z,4.90
2018-04-19T21:04:13.811Z,4.33
2018-04-19T21:06:42.152Z,5.10
2018-04-19T21:09:11.380Z,4.83
2018-04-19T21:11:39.915Z,4.20
2018-04-19T21:14:08.987Z,4.45
2018-04-19T21:16:37.338Z,4.67
2018-04-19T21:19:05.669Z,4.70
2018-04-19T21:21:34.916Z,4.27
2018-04-19T21:24:03.294Z,3.80
2018-04-19T21:26:32.009Z,3.90
2018-04-19T21:29:00.404Z,4.80
2018-04-19T21:31:28.742Z,4.47
2018-04-19T21:33:57.194Z,4.43
2018-04-19T21:36:25.622Z,4.12
2018-04-19T21:38:54.126Z,5.85
2018-04-19T21:41:22.599Z,5.37
2018-04-19T21:43:50.909Z,4.33
2018-04-19T21:46:21.136Z,4.33
2018-04-19T21:48:49.468Z,4.73
2018-04-19T21:51:17.833Z,4.90
2018-04-19T21:53:46.548Z,4.87
2018-04-19T21:56:15.086Z,4.27
2018-04-19T21:58:43.453Z,4.30
2018-04-19T22:01:11.914Z,5.43
2018-04-19T22:03:40.316Z,4.63
2018-04-19T22:06:08.686Z,4.57
2018-04-19T22:08:37.189Z,4.13
2018-04-19T22:11:05.639Z,4.47
2018-04-19T22:13:33.967Z,4.30
2018-04-19T22:16:03.386Z,4.40
2018-04-19T22:18:31.757Z,4.63
2018-04-19T22:21:00.331Z,4.63
2018-04-19T22:23:28.632Z,4.60
2018-04-19T22:25:56.974Z,4.00
2018-04-19T22:28:26.463Z,4.35
2018-04-19T22:30:54.819Z,3.90
2018-04-19T22:33:23.114Z,3.97
2018-04-19T22:35:51.423Z,4.40
2018-04-19T22:38:19.908Z,3.60
2018-04-19T22:40:48.253Z,3.72
2018-04-19T22:43:16.602Z,3.62
2018-04-19T22:45:45.639Z,3.73
2018-04-19T22:48:13.966Z,4.30
2018-04-19T22:50:42.412Z,4.60
2018-04-19T22:53:11.722Z,4.00
2018-04-19T22:55:41.958Z,4.10
2018-04-19T22:58:12.017Z,4.50
2018-04-19T23:00:42.052Z,4.50
2018-04-19T23:03:10.506Z,3.77
2018-04-19T23:05:38.827Z,4.07
2018-04-19T23:08:07.289Z,4.40
2018-04-19T23:10:35.834Z,4.10
2018-04-19T23:13:04.152Z,3.73
2018-04-19T23:15:32.597Z,3.57
2018-04-19T23:18:00.948Z,4.03
2018-04-19T23:20:29.325Z,3.80
2018-04-19T23:22:57.827Z,4.13
2018-04-19T23:25:26.238Z,3.93
2018-04-19T23:27:54.561Z,3.17
2018-04-19T23:30:22.862Z,3.83
2018-04-19T23:32:51.201Z,4.20
2018-04-19T23:35:19.533Z,3.97
2018-04-19T23:37:47.884Z,4.03
2018-04-19T23:40:16.979Z,4.43
2018-04-19T23:42:46.109Z,4.00
2018-04-19T23:45:15.799Z,3.65
2018-04-19T23:47:44.333Z,4.43
2018-04-19T23:50:12.735Z,3.97
2018-04-19T23:52:41.072Z,3.67
2018-04-19T23:55:09.448Z,4.20
2018-04-19T23:57:37.728Z,3.60
